00:05
Airports
History
Links
Donate
Help keep this website running!
PayPal
Bitcoin
This page is community maintained. The information is intended for PC simulator navigation or reference.
Always use approved charts for navigation.
SBJP
Presidente Castro Pinto
Presidente Castro Pinto (SBJP)
Santa Rita, Paraíba, Brazil (58308)
(C)
Lat/Lng:7° 8' 54.18" S / 34° 57' 2.45" W
-7.148382 / -34.950681
Elevation:215'ft / 66mMSL
ID / ICAO:SBJP
Runways:1
Longest:16-34
Asphalt 2,527m / 8,290ft
Controlled:Yes
METAR00:00 GMT 2017-10-17
Altimeter: 30.03
Visibility: 6.2 statute miles
Wind: 8 knots (from 150°)
Temp: 25°c / 77°f
Humidity: 78.5%

METAR: SBJP 170000Z 15008KT CAVOK 25/21 Q1017

(Powered by phpweather)
Airport Radio Frequencies
Tower: 118.3
Approach: 118.3
Runway 16 / 34
Dimensions:2526.7 x 45.1m 8290' x 148'ft
Surface:Asphalt
Edge Lights:Low intensity
Runway 16 [A]Runway 34 [B]
Heading:135°TH 315°TH
Lat:
Lng:
7° 8' 24.95"S
34° 57' 31.22"W
7° 9' 23.4"S
34° 56' 33.68"W
User Notes and Comments
7° 8' 54.18" S / 34° 57' 2.45" W
Distance To
Airport ID:
Nearby Airports
(U) JOAO PESSOA AEROCLUBE 8.4 NM
SNJO ENE 62°
(C) Rio Tinto 26.7 NM
SNRN NNW 337°
(U) Cimento Poty 27.2 NM
SIXW SSE 167°
(U) ITAPESSOCA 35.7 NM
SIPE S 169°
(U) Senador Antonio Farias 51.6 NM
SIQA N 352°
(U) Tabuleiro 56.2 NM
SJFU WNW 303°
(C) PRESIDENTE JOAO SUASSUNA 65.4 NM
SBKG ( WX ) W 262°
VFR Chart
Flight Planning at SkyVector.com